< Cyclone 200409 2004 Season Cyclone 200501 >
Cyclone 200411 (OSCAR)
General InformationTrack Information on Google MapsDetailed Wind InformationList of All Images || ResourceGoogle EarthGE AnimationAtom FeedGeoJSON
Detalied Best Track (Time Zone = UTC)
Year Month Day Hour Lat. Long. Pressure (hPa) Wind (kt) Class Image Chart
2004 3 21 00 -11.9 103.5 1004 20 2 Image --
2004 3 21 06 -13.2 103.8 1004 20 2 Image --
2004 3 21 12 -14.1 103.4 1004 20 2 Image --
2004 3 21 18 -14.6 103.1 1004 20 2 Image --
2004 3 22 00 -15.1 102.7 1004 20 2 Image --
2004 3 22 06 -14.8 101.5 1004 20 2 Image --
2004 3 22 12 -14.7 101.1 1002 25 2 Image --
2004 3 22 18 -14.5 100.8 1000 25 2 Image --
2004 3 23 00 -14.4 100.1 998 25 2 Image --
2004 3 23 06 -14.3 99.2 996 30 2 Image --
2004 3 23 09 -14.2 98.9 995 35 3 Image --
2004 3 23 12 -14.1 98.6 992 45 3 Image --
2004 3 23 18 -14.1 97.8 988 50 4 Image --
2004 3 24 00 -14.2 96.9 985 50 4 Image --
2004 3 24 06 -14.4 96.2 985 50 4 Image --
2004 3 24 12 -14.7 95.5 980 55 4 Image --
2004 3 24 18 -14.9 94.6 980 60 4 Image --
2004 3 25 00 -15.1 93.6 975 60 4 Image --
2004 3 25 06 -15.7 93.0 970 60 4 Image --
2004 3 25 12 -16.1 92.8 965 70 5 Image --
2004 3 25 18 -16.5 92.6 945 85 5 Image --
2004 3 26 00 -16.9 92.4 940 90 5 Image --
2004 3 26 06 -17.1 92.3 940 90 5 Image --
2004 3 26 12 -17.6 92.0 940 90 5 Image --
2004 3 26 18 -17.6 91.6 945 85 5 Image --
2004 3 27 00 -17.8 91.0 950 80 5 Image --
2004 3 27 06 -18.4 90.6 960 70 5 Image --
2004 3 27 12 -18.8 90.3 970 60 4 Image --
2004 3 27 18 -19.2 89.7 980 50 4 Image --
2004 3 28 00 -19.3 89.3 990 40 3 Image --
2004 3 28 06 -19.5 89.0 1000 30 2 Image --
< Cyclone 200409 2004 Season Cyclone 200501 >

Help